Terminal Aerodrome Forecast
Issued by NWS

Home | Current Version | Previous Version | Text Only | Print | Product List | Glossary On
Versions: 1 2 3 4 5 6 7 8 9 10 11 12 13 14 15 16 17 18 19 20 21 22 23 24 25 26 27 28 29 30 31 32 33 34 35 36 37 38 39 40 41 42
000
FTUS43 KMKX 282328
TAFUES
TAF
KUES 282328Z 2900/2924 16008KT P6SM SCT100 BKN200
     FM290700 18007KT P6SM VCTS SCT050CB BKN100
     FM290900 21006KT P6SM SHRA VCTS SCT040 BKN080CB
      TEMPO 2909/2911 5SM TSRA BKN040CB
     FM291100 25007KT P6SM VCTS SCT030 OVC050CB
     FM291200 27008KT P6SM BKN040
     FM291500 29011G20KT P6SM SCT040 SCT200=

USA.gov is the U.S. government's official web portal to all federal, state and local government web resources and services.